Time;durP1;ratioP1;P1;durP2;ratioP2;P2;SDS_P1;SDS_P2;PMS_P1;PMS_P2;Temp;Humidity;BMP_temperature;BMP_pressure;BME280_temperature;BME280_humidity;BME280_pressure;Samples;Min_cycle;Max_cycle;Signal;HPM_P1;HPM_P2
2023/06/21 00:01:06;;;;;;;7.45;2.28;;;;;;;;;;5069934;28;20030;-79
2023/06/21 00:03:32;;;;;;;3.08;2.38;;;;;;;;;;5054300;28;20134;-79
2023/06/21 00:05:58;;;;;;;5.80;2.20;;;;;;;;;;5053592;28;20033;-79
2023/06/21 00:08:24;;;;;;;2.17;1.90;;;;;;;;;;5070465;28;20036;-79
2023/06/21 00:10:51;;;;;;;4.05;2.10;;;;;;;;;;5053136;28;20040;-79
2023/06/21 00:13:17;;;;;;;3.90;2.50;;;;;;;;;;5053352;28;20022;-79
2023/06/21 00:15:43;;;;;;;4.28;2.60;;;;;;;;;;5053670;28;20021;-78
2023/06/21 00:18:09;;;;;;;4.25;2.00;;;;;;;;;;5052253;28;20024;-79
2023/06/21 00:20:37;;;;;;;4.90;2.20;;;;;;;;;;5069376;28;20061;-79
2023/06/21 00:23:03;;;;;;;5.18;2.10;;;;;;;;;;5051920;28;20024;-79
2023/06/21 00:25:29;;;;;;;5.53;2.33;;;;;;;;;;5069079;28;20057;-79
2023/06/21 00:27:55;;;;;;;4.00;2.67;;;;;;;;;;5068445;28;20013;-79
2023/06/21 00:30:21;;;;;;;3.97;2.35;;;;;;;;;;5058275;28;20048;-79
2023/06/21 00:32:47;;;;;;;3.45;2.47;;;;;;;;;;5058584;28;20017;-79
2023/06/21 00:35:13;;;;;;;5.40;2.40;;;;;;;;;;5068894;28;20191;-79
2023/06/21 00:37:39;;;;;;;4.07;2.42;;;;;;;;;;5067804;28;20037;-79
2023/06/21 00:40:11;;;;;;;5.00;2.65;;;;;;;;;;5068685;28;20018;-79
2023/06/21 00:42:37;;;;;;;;;;;;;;;;;;5068783;28;20040;-79
2023/06/21 00:45:04;;;;;;;5.82;2.20;;;;;;;;;;5048318;28;19908;-79
2023/06/21 00:47:30;;;;;;;4.68;2.55;;;;;;;;;;5068325;28;20028;-79
2023/06/21 00:49:57;;;;;;;4.43;2.63;;;;;;;;;;5068632;28;20029;-79
2023/06/21 00:52:23;;;;;;;4.13;2.47;;;;;;;;;;5068559;28;20140;-79
2023/06/21 00:54:49;;;;;;;5.65;2.90;;;;;;;;;;5068126;28;20045;-79
2023/06/21 00:57:15;;;;;;;7.38;2.55;;;;;;;;;;5067864;28;20021;-79
2023/06/21 00:59:41;;;;;;;4.75;2.63;;;;;;;;;;5051703;28;20123;-79
2023/06/21 01:02:07;;;;;;;8.27;3.50;;;;;;;;;;5051499;28;20010;-79
2023/06/21 01:04:34;;;;;;;5.38;2.45;;;;;;;;;;5067861;28;20036;-81
2023/06/21 01:07:07;;;;;;;6.03;2.92;;;;;;;;;;5051726;28;20030;-80
2023/06/21 01:09:40;;;;;;;3.67;2.33;;;;;;;;;;5051058;28;20029;-79
2023/06/21 01:12:09;;;;;;;4.35;2.70;;;;;;;;;;5067422;28;20041;-79
2023/06/21 01:14:38;;;;;;;3.53;2.65;;;;;;;;;;5026630;28;1137648;-81
2023/06/21 01:17:05;;;;;;;4.43;2.80;;;;;;;;;;5051832;28;20029;-79
2023/06/21 01:19:31;;;;;;;6.07;2.72;;;;;;;;;;5067856;28;20037;-81
2023/06/21 01:21:59;;;;;;;5.13;2.85;;;;;;;;;;5067820;28;20018;-79
2023/06/21 01:24:30;;;;;;;7.03;2.80;;;;;;;;;;5068090;28;20017;-80
2023/06/21 01:27:12;;;;;;;5.20;3.13;;;;;;;;;;5068173;28;20025;-79
2023/06/21 01:29:39;;;;;;;4.07;2.70;;;;;;;;;;5052468;28;20044;-80
2023/06/21 01:32:06;;;;;;;4.00;2.70;;;;;;;;;;5067851;28;20562;-78
2023/06/21 01:34:33;;;;;;;3.03;2.40;;;;;;;;;;5051361;28;20021;-79
2023/06/21 01:36:59;;;;;;;7.20;3.20;;;;;;;;;;5067385;28;20014;-79
2023/06/21 01:39:31;;;;;;;4.50;2.88;;;;;;;;;;5067926;28;20028;-80
2023/06/21 01:41:58;;;;;;;;;;;;;;;;;;5052397;28;20022;-80
2023/06/21 01:44:25;;;;;;;3.80;2.83;;;;;;;;;;5047097;28;19915;-78
2023/06/21 01:46:52;;;;;;;3.95;2.53;;;;;;;;;;5067221;28;20029;-78
2023/06/21 01:49:19;;;;;;;3.85;2.80;;;;;;;;;;5050174;28;20032;-79
2023/06/21 01:51:45;;;;;;;3.55;2.83;;;;;;;;;;5067121;28;20056;-79
2023/06/21 01:54:12;;;;;;;3.90;2.83;;;;;;;;;;5050376;28;20021;-80
2023/06/21 01:56:41;;;;;;;4.47;3.55;;;;;;;;;;5067246;28;20028;-79
2023/06/21 01:59:07;;;;;;;6.13;3.45;;;;;;;;;;5066933;28;20028;-78
2023/06/21 02:01:33;;;;;;;10.55;3.55;;;;;;;;;;5065786;28;20032;-80
2023/06/21 02:04:00;;;;;;;6.00;3.88;;;;;;;;;;5066317;28;20018;-79
2023/06/21 02:06:29;;;;;;;6.68;3.90;;;;;;;;;;5056141;28;20041;-79
2023/06/21 02:09:05;;;;;;;5.53;3.92;;;;;;;;;;5066793;28;20097;-79
2023/06/21 02:11:31;;;;;;;5.90;4.25;;;;;;;;;;5066491;28;20942;-80
2023/06/21 02:13:57;;;;;;;4.28;3.58;;;;;;;;;;5065345;28;20047;-80
2023/06/21 02:16:30;;;;;;;4.82;3.35;;;;;;;;;;5066065;28;20034;-80
2023/06/21 02:18:56;;;;;;;7.20;3.95;;;;;;;;;;5066213;28;20048;-80
2023/06/21 02:21:25;;;;;;;5.00;4.03;;;;;;;;;;5054451;28;20025;-79
2023/06/21 02:23:52;;;;;;;7.05;4.20;;;;;;;;;;5050181;28;20013;-79
2023/06/21 02:26:18;;;;;;;5.03;4.25;;;;;;;;;;5066164;28;20029;-79
2023/06/21 02:28:47;;;;;;;7.47;4.47;;;;;;;;;;5065444;28;20034;-79
2023/06/21 02:31:13;;;;;;;8.50;4.43;;;;;;;;;;5049466;28;20022;-81
2023/06/21 02:33:42;;;;;;;6.88;4.50;;;;;;;;;;5066082;28;20026;-82
2023/06/21 02:36:08;;;;;;;6.93;3.83;;;;;;;;;;5066066;28;20041;-79
2023/06/21 02:38:34;;;;;;;7.38;4.18;;;;;;;;;;5066159;28;20029;-80
2023/06/21 02:41:00;;;;;;;4.15;3.75;;;;;;;;;;5066391;28;20018;-79
2023/06/21 02:43:26;;;;;;;5.10;3.90;;;;;;;;;;5049407;28;20041;-81
2023/06/21 02:45:53;;;;;;;7.75;4.45;;;;;;;;;;5065940;28;20065;-81
2023/06/21 02:48:19;;;;;;;6.70;4.07;;;;;;;;;;5049007;28;20014;-79
2023/06/21 02:50:45;;;;;;;5.90;4.22;;;;;;;;;;5065870;28;20057;-79
2023/06/21 02:53:11;;;;;;;4.63;3.88;;;;;;;;;;5065782;28;20256;-81
2023/06/21 02:55:37;;;;;;;4.82;4.05;;;;;;;;;;5049110;28;20017;-80
2023/06/21 02:58:03;;;;;;;6.13;4.22;;;;;;;;;;5064964;28;20026;-81
2023/06/21 03:00:31;;;;;;;5.88;4.20;;;;;;;;;;5067517;28;20089;-79
2023/06/21 03:03:00;;;;;;;8.07;4.07;;;;;;;;;;5053262;28;20093;-80
2023/06/21 03:05:36;;;;;;;5.80;4.25;;;;;;;;;;5052813;28;20039;-80
2023/06/21 03:08:12;;;;;;;5.72;3.92;;;;;;;;;;5069281;28;20021;-81
2023/06/21 03:10:39;;;;;;;5.68;3.90;;;;;;;;;;5053375;28;20138;-79
2023/06/21 03:13:05;;;;;;;11.25;4.43;;;;;;;;;;5068822;28;20021;-83
2023/06/21 03:15:31;;;;;;;5.65;4.40;;;;;;;;;;5058126;28;20093;-79
2023/06/21 03:17:57;;;;;;;6.13;4.28;;;;;;;;;;5059326;28;21192;-78
2023/06/21 03:20:25;;;;;;;7.15;3.95;;;;;;;;;;5055372;28;20028;-79
2023/06/21 03:22:51;;;;;;;8.35;4.10;;;;;;;;;;5068743;28;20057;-78
2023/06/21 03:25:18;;;;;;;6.07;4.57;;;;;;;;;;5068614;28;20125;-81
2023/06/21 03:27:44;;;;;;;9.35;4.55;;;;;;;;;;5052828;28;20057;-81
2023/06/21 03:30:13;;;;;;;6.45;4.53;;;;;;;;;;5059358;28;21185;-78
2023/06/21 03:32:46;;;;;;;8.57;4.28;;;;;;;;;;5068973;28;20014;-79
2023/06/21 03:35:12;;;;;;;6.40;4.10;;;;;;;;;;5068547;28;20026;-80
2023/06/21 03:37:38;;;;;;;6.07;4.57;;;;;;;;;;5069000;28;20033;-79
2023/06/21 03:40:05;;;;;;;5.47;4.00;;;;;;;;;;5069199;28;20190;-79
2023/06/21 03:42:31;;;;;;;6.95;4.70;;;;;;;;;;5068503;28;20059;-79
2023/06/21 03:44:57;;;;;;;9.00;4.93;;;;;;;;;;5067907;28;20049;-79
2023/06/21 03:47:23;;;;;;;12.70;4.60;;;;;;;;;;5068452;28;20025;-80
2023/06/21 03:49:49;;;;;;;7.13;5.10;;;;;;;;;;5052713;28;20029;-78
2023/06/21 03:52:15;;;;;;;7.38;5.15;;;;;;;;;;5068252;28;20022;-79
2023/06/21 03:54:41;;;;;;;7.07;4.75;;;;;;;;;;5068020;28;20059;-79
2023/06/21 03:57:07;;;;;;;10.93;5.00;;;;;;;;;;5052083;28;20100;-78
2023/06/21 03:59:33;;;;;;;10.68;5.35;;;;;;;;;;5052523;28;20026;-79
2023/06/21 04:02:00;;;;;;;9.02;5.68;;;;;;;;;;5068794;28;20296;-78
2023/06/21 04:04:26;;;;;;;7.47;5.40;;;;;;;;;;5068733;28;20037;-79
2023/06/21 04:06:52;;;;;;;9.55;5.63;;;;;;;;;;5069014;28;20128;-79
2023/06/21 04:09:23;;;;;;;7.35;5.18;;;;;;;;;;5068955;28;20036;-79
2023/06/21 04:11:49;;;;;;;9.38;5.40;;;;;;;;;;5068301;28;20010;-78
2023/06/21 04:14:15;;;;;;;7.95;4.70;;;;;;;;;;5053211;28;20018;-80
2023/06/21 04:16:42;;;;;;;10.05;5.18;;;;;;;;;;5085532;28;20029;-79
2023/06/21 04:19:08;;;;;;;8.00;5.35;;;;;;;;;;5068196;28;20017;-79
2023/06/21 04:21:34;;;;;;;7.15;4.97;;;;;;;;;;5052413;28;20034;-79
2023/06/21 04:24:01;;;;;;;6.25;4.90;;;;;;;;;;5068944;28;20085;-79
2023/06/21 04:26:28;;;;;;;9.90;5.40;;;;;;;;;;5052192;28;20166;-79
2023/06/21 04:28:54;;;;;;;7.55;5.50;;;;;;;;;;5052497;28;20056;-79
2023/06/21 04:31:20;;;;;;;8.18;5.35;;;;;;;;;;5068857;28;20028;-79
2023/06/21 04:33:46;;;;;;;7.53;5.25;;;;;;;;;;5069226;28;20024;-79
2023/06/21 04:36:17;;;;;;;9.40;4.90;;;;;;;;;;5053929;28;20139;-79
2023/06/21 04:38:48;;;;;;;7.30;5.10;;;;;;;;;;5069698;28;20033;-79
2023/06/21 04:41:14;;;;;;;7.23;5.20;;;;;;;;;;5068925;28;20063;-79
2023/06/21 04:43:41;;;;;;;9.05;5.47;;;;;;;;;;5059219;28;20104;-79
2023/06/21 04:46:08;;;;;;;8.60;4.90;;;;;;;;;;5069048;28;20037;-79
2023/06/21 04:48:34;;;;;;;10.00;4.88;;;;;;;;;;5068203;28;20018;-79
2023/06/21 04:51:00;;;;;;;10.07;5.80;;;;;;;;;;5068171;28;20028;-79
2023/06/21 04:53:29;;;;;;;9.90;5.80;;;;;;;;;;5068716;28;20037;-79
2023/06/21 04:55:57;;;;;;;10.43;5.65;;;;;;;;;;5059647;28;20097;-79
2023/06/21 04:58:23;;;;;;;8.82;5.63;;;;;;;;;;5054011;28;20037;-79
2023/06/21 05:00:49;;;;;;;11.73;5.20;;;;;;;;;;5052597;28;20024;-79
2023/06/21 05:03:16;;;;;;;8.52;5.88;;;;;;;;;;5068952;28;20029;-79
2023/06/21 05:05:42;;;;;;;8.60;5.03;;;;;;;;;;5069520;28;20052;-79
2023/06/21 05:08:08;;;;;;;7.47;5.93;;;;;;;;;;5053207;28;20045;-79
2023/06/21 05:10:34;;;;;;;6.35;4.82;;;;;;;;;;5050403;28;20124;-80
2023/06/21 05:13:00;;;;;;;8.15;6.13;;;;;;;;;;5048333;28;20025;-80
2023/06/21 05:15:26;;;;;;;8.75;5.57;;;;;;;;;;5054852;28;20048;-81
2023/06/21 05:17:52;;;;;;;9.00;5.93;;;;;;;;;;5047022;28;20025;-82
2023/06/21 05:20:22;;;;;;;8.77;5.45;;;;;;;;;;5062470;28;20030;-81
2023/06/21 05:22:48;;;;;;;7.50;6.15;;;;;;;;;;5059857;28;20092;-83
2023/06/21 05:25:14;;;;;;;10.23;5.47;;;;;;;;;;5048385;28;20041;-86
2023/06/21 05:27:40;;;;;;;8.75;5.88;;;;;;;;;;5053844;28;20149;-86
2023/06/21 05:30:07;;;;;;;9.77;5.82;;;;;;;;;;5038712;28;20034;-84
2023/06/21 05:32:33;;;;;;;11.00;6.03;;;;;;;;;;5038651;28;20021;-86
2023/06/21 05:34:59;;;;;;;7.90;5.07;;;;;;;;;;5044564;28;20088;-82
2023/06/21 05:37:25;;;;;;;8.10;5.70;;;;;;;;;;5052279;28;20037;-84
2023/06/21 05:39:51;;;;;;;8.00;5.70;;;;;;;;;;5052556;28;20125;-87
2023/06/21 05:42:17;;;;;;;12.13;5.85;;;;;;;;;;5034576;28;20029;-86
2023/06/21 05:44:43;;;;;;;7.10;5.43;;;;;;;;;;5050749;28;20053;-87
2023/06/21 05:47:09;;;;;;;10.88;5.88;;;;;;;;;;5034861;28;20048;-86
2023/06/21 05:49:35;;;;;;;6.38;5.50;;;;;;;;;;5050907;28;20359;-85
2023/06/21 05:52:01;;;;;;;11.27;5.80;;;;;;;;;;5049276;28;20017;-87
2023/06/21 05:54:27;;;;;;;10.48;5.45;;;;;;;;;;5049309;28;20101;-87
2023/06/21 05:56:55;;;;;;;11.05;6.15;;;;;;;;;;5031079;28;20021;-86
2023/06/21 05:59:21;;;;;;;10.18;6.00;;;;;;;;;;5049542;28;20041;-86
2023/06/21 06:01:47;;;;;;;6.65;5.40;;;;;;;;;;5046886;28;20021;-86
2023/06/21 06:04:15;;;;;;;12.10;5.90;;;;;;;;;;5033121;28;20350;-85
2023/06/21 06:06:42;;;;;;;10.57;5.70;;;;;;;;;;5032192;28;20052;-86
2023/06/21 06:09:09;;;;;;;7.95;5.70;;;;;;;;;;5048933;28;20029;-86
2023/06/21 06:11:35;;;;;;;9.65;5.75;;;;;;;;;;5039450;28;20112;-87
2023/06/21 06:14:01;;;;;;;7.88;5.43;;;;;;;;;;5048914;28;20129;-87
2023/06/21 06:16:27;;;;;;;11.50;6.32;;;;;;;;;;5048710;28;20037;-86
2023/06/21 06:18:54;;;;;;;7.78;5.78;;;;;;;;;;5048896;28;20134;-84
2023/06/21 06:21:21;;;;;;;6.18;5.30;;;;;;;;;;5032348;28;20053;-88
2023/06/21 06:23:51;;;;;;;8.98;5.00;;;;;;;;;;5032795;28;20085;-87
2023/06/21 06:26:20;;;;;;;8.98;5.95;;;;;;;;;;5045442;28;20365;-84
2023/06/21 06:28:46;;;;;;;9.93;5.93;;;;;;;;;;5032034;28;21761;-85
2023/06/21 06:31:13;;;;;;;9.10;5.35;;;;;;;;;;5050041;28;20021;-84
2023/06/21 06:33:39;;;;;;;8.05;5.05;;;;;;;;;;5051346;28;20021;-86
2023/06/21 06:36:08;;;;;;;7.43;5.25;;;;;;;;;;5049995;28;20029;-86
2023/06/21 06:38:34;;;;;;;10.38;5.82;;;;;;;;;;5052632;28;20033;-83
2023/06/21 06:41:00;;;;;;;7.88;5.38;;;;;;;;;;5035280;28;20112;-85
2023/06/21 06:43:25;;;;;;;8.35;5.25;;;;;;;;;;5035373;28;20040;-83
2023/06/21 06:45:51;;;;;;;8.82;5.57;;;;;;;;;;5050341;28;20029;-85
2023/06/21 06:48:17;;;;;;;7.78;5.25;;;;;;;;;;5033597;28;20057;-86
2023/06/21 06:50:46;;;;;;;15.50;5.25;;;;;;;;;;5048961;28;20481;-82
2023/06/21 06:53:12;;;;;;;8.18;5.30;;;;;;;;;;5035149;28;20033;-84
2023/06/21 06:55:38;;;;;;;6.55;5.00;;;;;;;;;;5049362;28;20029;-82
2023/06/21 06:58:04;;;;;;;11.75;5.28;;;;;;;;;;5056522;28;20060;-84
2023/06/21 07:00:30;;;;;;;8.60;5.88;;;;;;;;;;5052431;28;20366;-85
2023/06/21 07:02:57;;;;;;;7.82;5.30;;;;;;;;;;5049889;28;20041;-85
2023/06/21 07:05:29;;;;;;;8.27;5.68;;;;;;;;;;5046409;28;20033;-87
2023/06/21 07:07:56;;;;;;;7.90;5.70;;;;;;;;;;5033980;28;20096;-86
2023/06/21 07:10:21;;;;;;;7.07;5.15;;;;;;;;;;5048599;28;20091;-86
2023/06/21 07:12:47;;;;;;;9.32;5.78;;;;;;;;;;5049934;28;20027;-84
2023/06/21 07:15:13;;;;;;;9.15;5.80;;;;;;;;;;5047261;28;20044;-86
2023/06/21 07:17:42;;;;;;;6.95;5.05;;;;;;;;;;5047418;28;20034;-86
2023/06/21 07:20:08;;;;;;;10.75;4.68;;;;;;;;;;5031236;28;20021;-77
2023/06/21 07:22:35;;;;;;;7.70;4.60;;;;;;;;;;5044782;28;20571;-78
2023/06/21 07:25:01;;;;;;;12.38;5.25;;;;;;;;;;5044636;28;20030;-83
2023/06/21 07:27:27;;;;;;;9.00;4.75;;;;;;;;;;5030385;28;20029;-79
2023/06/21 07:29:53;;;;;;;14.30;4.97;;;;;;;;;;5044343;28;20037;-79
2023/06/21 07:32:19;;;;;;;7.05;5.13;;;;;;;;;;5043589;28;20040;-78
2023/06/21 07:34:45;;;;;;;7.25;4.97;;;;;;;;;;5027003;28;20028;-78
2023/06/21 07:37:11;;;;;;;7.45;4.30;;;;;;;;;;5042993;28;20115;-79
2023/06/21 07:39:40;;;;;;;13.45;4.30;;;;;;;;;;5028405;28;20478;-79
2023/06/21 07:42:07;;;;;;;7.53;4.30;;;;;;;;;;5043047;28;20033;-81
2023/06/21 07:44:36;;;;;;;6.53;4.60;;;;;;;;;;5042005;28;20029;-78
2023/06/21 07:47:02;;;;;;;8.57;5.25;;;;;;;;;;5046670;28;20025;-80
2023/06/21 07:49:28;;;;;;;5.57;4.45;;;;;;;;;;5048805;28;20032;-80
2023/06/21 07:51:54;;;;;;;7.40;4.90;;;;;;;;;;5048488;28;20037;-79
2023/06/21 07:54:20;;;;;;;8.45;5.38;;;;;;;;;;5029939;28;20021;-78
2023/06/21 07:56:48;;;;;;;8.35;4.50;;;;;;;;;;5029751;28;20106;-79
2023/06/21 07:59:14;;;;;;;8.85;4.55;;;;;;;;;;5031144;28;20100;-80
2023/06/21 08:01:40;;;;;;;5.40;4.43;;;;;;;;;;5030047;28;20581;-78
2023/06/21 08:04:06;;;;;;;9.02;4.53;;;;;;;;;;5045457;28;20034;-80
2023/06/21 08:06:32;;;;;;;7.03;4.25;;;;;;;;;;5030629;28;20040;-79
2023/06/21 08:08:58;;;;;;;9.07;4.82;;;;;;;;;;5045840;28;20030;-78
2023/06/21 08:11:24;;;;;;;8.85;4.57;;;;;;;;;;5047732;28;20025;-80
2023/06/21 08:13:50;;;;;;;5.35;3.65;;;;;;;;;;5047999;28;20485;-81
2023/06/21 08:16:16;;;;;;;9.40;4.63;;;;;;;;;;5048076;28;20045;-80
2023/06/21 08:18:43;;;;;;;7.18;5.28;;;;;;;;;;5049421;28;20083;-80
2023/06/21 08:21:09;;;;;;;6.65;4.85;;;;;;;;;;5032795;28;20025;-82
2023/06/21 08:23:35;;;;;;;11.13;5.50;;;;;;;;;;5049440;28;20053;-87
2023/06/21 08:26:01;;;;;;;10.10;5.35;;;;;;;;;;5050594;28;20061;-83
2023/06/21 08:28:27;;;;;;;8.75;5.90;;;;;;;;;;5049465;28;20017;-82
2023/06/21 08:30:53;;;;;;;9.68;5.93;;;;;;;;;;5033872;28;20022;-82
2023/06/21 08:33:19;;;;;;;9.50;6.63;;;;;;;;;;5049772;28;20033;-81
2023/06/21 08:35:45;;;;;;;8.32;5.90;;;;;;;;;;5050415;28;20037;-82
2023/06/21 08:38:11;;;;;;;7.75;6.00;;;;;;;;;;5049738;28;20053;-82
2023/06/21 08:40:37;;;;;;;11.27;5.93;;;;;;;;;;5033518;28;20103;-82
2023/06/21 08:43:04;;;;;;;8.25;5.72;;;;;;;;;;5050215;28;20430;-82
2023/06/21 08:45:30;;;;;;;7.93;5.05;;;;;;;;;;5050122;28;20438;-81
2023/06/21 08:48:01;;;;;;;9.05;5.50;;;;;;;;;;5049162;28;20030;-81
2023/06/21 08:50:27;;;;;;;6.43;5.15;;;;;;;;;;5048421;28;20045;-82
2023/06/21 08:52:54;;;;;;;8.32;5.93;;;;;;;;;;5049773;28;20075;-82
2023/06/21 08:55:23;;;;;;;8.88;5.40;;;;;;;;;;5032960;28;20166;-82
2023/06/21 08:57:52;;;;;;;12.48;6.35;;;;;;;;;;5043311;28;20044;-82
2023/06/21 09:00:22;;;;;;;7.30;6.57;;;;;;;;;;5032876;28;20072;-82
2023/06/21 09:02:48;;;;;;;8.70;5.97;;;;;;;;;;5049211;28;20026;-82
2023/06/21 09:05:21;;;;;;;14.20;6.85;;;;;;;;;;5032904;28;20055;-82
2023/06/21 09:07:47;;;;;;;15.38;7.47;;;;;;;;;;5039645;28;20358;-87
2023/06/21 09:10:15;;;;;;;7.32;6.13;;;;;;;;;;5050377;28;20025;-84
2023/06/21 09:12:43;;;;;;;10.27;6.72;;;;;;;;;;5050719;28;20021;-87
2023/06/21 09:15:09;;;;;;;12.55;5.95;;;;;;;;;;5048700;28;20437;-87
2023/06/21 09:17:37;;;;;;;8.65;5.70;;;;;;;;;;5049748;28;20087;-86
2023/06/21 09:20:03;;;;;;;10.27;6.03;;;;;;;;;;5049971;28;20059;-85
2023/06/21 09:22:33;;;;;;;11.88;6.35;;;;;;;;;;5033447;28;20029;-87
2023/06/21 09:24:59;;;;;;;10.73;6.25;;;;;;;;;;5049464;28;20034;-87
2023/06/21 09:27:26;;;;;;;7.15;5.80;;;;;;;;;;5049299;28;20056;-87
2023/06/21 09:29:52;;;;;;;11.18;6.68;;;;;;;;;;5033439;28;20049;-85
2023/06/21 09:32:18;;;;;;;8.23;6.35;;;;;;;;;;5049392;28;20136;-87
2023/06/21 09:34:44;;;;;;;7.22;5.90;;;;;;;;;;5033034;28;20048;-87
2023/06/21 09:37:10;;;;;;;10.63;6.72;;;;;;;;;;5048049;28;20120;-89
2023/06/21 09:39:36;;;;;;;7.90;6.30;;;;;;;;;;5049350;28;20029;-86
2023/06/21 09:42:02;;;;;;;9.77;6.72;;;;;;;;;;5049090;28;20017;-87
2023/06/21 09:44:32;;;;;;;10.85;6.28;;;;;;;;;;5047436;28;20055;-86
2023/06/21 09:47:02;;;;;;;11.77;6.60;;;;;;;;;;5048671;28;20482;-87
2023/06/21 09:49:28;;;;;;;8.20;6.25;;;;;;;;;;5048925;28;20458;-86
2023/06/21 09:51:54;;;;;;;9.50;7.47;;;;;;;;;;5049554;28;20029;-86
2023/06/21 09:54:20;;;;;;;11.30;7.53;;;;;;;;;;5049170;28;20112;-87
2023/06/21 09:56:46;;;;;;;7.72;6.22;;;;;;;;;;5032917;28;20029;-86
2023/06/21 09:59:15;;;;;;;9.10;6.25;;;;;;;;;;5048588;28;20029;-86
2023/06/21 10:01:45;;;;;;;11.75;6.55;;;;;;;;;;5033111;28;20025;-85
2023/06/21 10:04:12;;;;;;;8.23;6.45;;;;;;;;;;5031849;28;21658;-87
2023/06/21 10:06:38;;;;;;;10.50;6.93;;;;;;;;;;5048414;28;20040;-82
2023/06/21 10:09:08;;;;;;;8.05;6.97;;;;;;;;;;5046500;28;20030;-87
2023/06/21 10:11:37;;;;;;;12.43;7.35;;;;;;;;;;5046557;28;20091;-87
2023/06/21 10:14:03;;;;;;;10.68;7.10;;;;;;;;;;5032325;28;20030;-86
2023/06/21 10:16:29;;;;;;;10.98;6.93;;;;;;;;;;5049206;28;20071;-86
2023/06/21 10:18:59;;;;;;;10.82;6.47;;;;;;;;;;5047675;28;20346;-86
2023/06/21 10:21:26;;;;;;;8.35;7.20;;;;;;;;;;5032202;28;20029;-86
2023/06/21 10:23:53;;;;;;;9.27;6.72;;;;;;;;;;5048059;28;20029;-86
2023/06/21 10:26:19;;;;;;;9.57;6.50;;;;;;;;;;5048888;28;20033;-85
2023/06/21 10:28:49;;;;;;;10.00;6.05;;;;;;;;;;5031952;28;20063;-88
2023/06/21 10:31:15;;;;;;;13.25;6.32;;;;;;;;;;5048785;28;20025;-86
2023/06/21 10:33:44;;;;;;;9.88;6.60;;;;;;;;;;5049078;28;20022;-84
2023/06/21 10:36:17;;;;;;;9.18;5.65;;;;;;;;;;5048189;28;20045;-86
2023/06/21 10:38:51;;;;;;;9.90;6.15;;;;;;;;;;5048651;28;20168;-87
2023/06/21 10:41:17;;;;;;;9.50;6.30;;;;;;;;;;5049435;28;20354;-84
2023/06/21 10:43:44;;;;;;;8.93;6.45;;;;;;;;;;5030243;28;20118;-86
2023/06/21 10:46:11;;;;;;;9.20;5.45;;;;;;;;;;5048732;28;20645;-85
2023/06/21 10:48:37;;;;;;;9.90;5.50;;;;;;;;;;5032070;28;20056;-86
2023/06/21 10:51:04;;;;;;;9.80;6.50;;;;;;;;;;5049032;28;21719;-86
2023/06/21 10:53:34;;;;;;;10.15;5.65;;;;;;;;;;5049113;28;20022;-86
2023/06/21 10:56:00;;;;;;;10.60;6.35;;;;;;;;;;5040606;28;20029;-86
2023/06/21 10:58:27;;;;;;;12.80;6.82;;;;;;;;;;5030351;28;20021;-84
2023/06/21 11:00:53;;;;;;;9.60;6.82;;;;;;;;;;5046251;28;20044;-85
2023/06/21 11:03:25;;;;;;;8.98;6.88;;;;;;;;;;5048429;28;21731;-86
2023/06/21 11:05:55;;;;;;;8.50;6.25;;;;;;;;;;5048339;28;20021;-86
2023/06/21 11:08:31;;;;;;;11.63;6.65;;;;;;;;;;5031841;28;20450;-84
2023/06/21 11:10:57;;;;;;;11.40;7.95;;;;;;;;;;5046730;28;20029;-86
2023/06/21 11:13:36;;;;;;;12.18;7.15;;;;;;;;;;5048568;28;20469;-85
2023/06/21 11:16:24;;;;;;;14.30;6.45;;;;;;;;;;5048088;28;20034;-89
2023/06/21 11:18:55;;;;;;;7.53;6.78;;;;;;;;;;5031965;28;21816;-86
2023/06/21 11:21:48;;;;;;;10.00;6.20;;;;;;;;;;5049537;28;20025;-86
2023/06/21 11:24:26;;;;;;;10.75;7.30;;;;;;;;;;5032907;28;20470;-87
2023/06/21 11:26:53;;;;;;;11.50;7.30;;;;;;;;;;5035328;28;20030;-87
2023/06/21 11:29:19;;;;;;;9.98;6.95;;;;;;;;;;5051668;28;20053;-86
2023/06/21 11:31:45;;;;;;;11.85;7.07;;;;;;;;;;5052024;28;20103;-87
2023/06/21 11:34:22;;;;;;;9.18;7.10;;;;;;;;;;5050792;28;20021;-86
2023/06/21 11:36:51;;;;;;;11.50;6.97;;;;;;;;;;5068056;28;20152;-87
2023/06/21 11:39:19;;;;;;;9.15;7.03;;;;;;;;;;5034493;28;20057;-86
2023/06/21 11:41:45;;;;;;;12.07;7.20;;;;;;;;;;5035173;28;20122;-86
2023/06/21 11:44:12;;;;;;;10.45;6.65;;;;;;;;;;5051134;28;20120;-86
2023/06/21 11:46:45;;;;;;;10.43;6.90;;;;;;;;;;5051657;28;20036;-87
2023/06/21 11:49:11;;;;;;;12.25;6.18;;;;;;;;;;5050509;28;20060;-86
2023/06/21 11:51:48;;;;;;;13.65;6.53;;;;;;;;;;5034500;28;20022;-88
2023/06/21 11:54:28;;;;;;;8.32;5.32;;;;;;;;;;5035772;28;20022;-86
2023/06/21 11:56:56;;;;;;;8.50;5.13;;;;;;;;;;5051440;28;20091;-86
2023/06/21 11:59:26;;;;;;;10.07;5.72;;;;;;;;;;5051715;28;20029;-85
2023/06/21 12:01:52;;;;;;;8.10;5.35;;;;;;;;;;5052506;28;20117;-85
2023/06/21 12:04:26;;;;;;;15.10;5.80;;;;;;;;;;5050679;28;20032;-86
2023/06/21 12:06:58;;;;;;;8.38;4.18;;;;;;;;;;5049827;28;20037;-87
2023/06/21 12:09:24;;;;;;;;;;;;;;;;;;5050831;28;20025;-86
2023/06/21 12:11:50;;;;;;;7.82;5.00;;;;;;;;;;5043728;28;19920;-86
2023/06/21 12:14:16;;;;;;;6.88;4.80;;;;;;;;;;5051087;28;20029;-87
2023/06/21 12:16:43;;;;;;;12.65;4.93;;;;;;;;;;5048906;28;20025;-86
2023/06/21 12:19:09;;;;;;;8.15;4.53;;;;;;;;;;5051491;28;20461;-85
2023/06/21 12:21:35;;;;;;;6.93;4.78;;;;;;;;;;5051184;28;20048;-86
2023/06/21 12:24:01;;;;;;;6.70;4.25;;;;;;;;;;5049768;28;20026;-85
2023/06/21 12:26:27;;;;;;;6.80;4.43;;;;;;;;;;5033191;28;20105;-86
2023/06/21 12:28:53;;;;;;;7.72;4.15;;;;;;;;;;5034524;28;20025;-86
2023/06/21 12:31:20;;;;;;;5.97;4.20;;;;;;;;;;5051354;28;20061;-85
2023/06/21 12:33:46;;;;;;;8.13;4.47;;;;;;;;;;5033082;28;20125;-86
2023/06/21 12:36:25;;;;;;;7.78;4.47;;;;;;;;;;5051196;28;20013;-86
2023/06/21 12:38:51;;;;;;;5.97;4.38;;;;;;;;;;5050239;28;20052;-85
2023/06/21 12:41:19;;;;;;;7.47;4.10;;;;;;;;;;5050868;28;20076;-86
2023/06/21 12:43:49;;;;;;;4.30;3.65;;;;;;;;;;5049460;28;20029;-86
2023/06/21 12:46:15;;;;;;;6.63;4.18;;;;;;;;;;5039099;28;20033;-86
2023/06/21 12:48:44;;;;;;;7.95;4.45;;;;;;;;;;5050048;28;20103;-86
2023/06/21 12:51:10;;;;;;;8.75;4.68;;;;;;;;;;5049911;28;20025;-87
2023/06/21 12:53:39;;;;;;;6.72;4.35;;;;;;;;;;5034892;28;20561;-85
2023/06/21 12:56:07;;;;;;;8.65;4.45;;;;;;;;;;5050694;28;20025;-85
2023/06/21 12:58:33;;;;;;;9.63;3.72;;;;;;;;;;5034272;28;20457;-87
2023/06/21 13:01:00;;;;;;;12.43;4.40;;;;;;;;;;5033430;28;20451;-84
2023/06/21 13:03:25;;;;;;;4.47;4.00;;;;;;;;;;5050389;28;20029;-84
2023/06/21 13:05:52;;;;;;;9.80;4.60;;;;;;;;;;5034041;28;20032;-86
2023/06/21 13:08:20;;;;;;;6.47;4.38;;;;;;;;;;5050215;28;20137;-86
2023/06/21 13:10:46;;;;;;;6.82;4.45;;;;;;;;;;5037539;28;20029;-86
2023/06/21 13:13:12;;;;;;;8.20;4.43;;;;;;;;;;5049032;28;20342;-86
2023/06/21 13:15:38;;;;;;;6.93;4.60;;;;;;;;;;5049394;28;20053;-83
2023/06/21 13:18:04;;;;;;;6.22;3.90;;;;;;;;;;5048365;28;20030;-88
2023/06/21 13:20:35;;;;;;;14.20;3.92;;;;;;;;;;5033984;28;20040;-86
2023/06/21 13:23:01;;;;;;;5.70;4.15;;;;;;;;;;5033507;28;20033;-87
2023/06/21 13:25:27;;;;;;;8.23;4.18;;;;;;;;;;5048900;28;20030;-86
2023/06/21 13:27:53;;;;;;;11.23;3.90;;;;;;;;;;5048924;28;20405;-84
2023/06/21 13:30:20;;;;;;;6.30;4.43;;;;;;;;;;5049968;28;20037;-86
2023/06/21 13:32:46;;;;;;;5.60;3.80;;;;;;;;;;5033431;28;20013;-86
2023/06/21 13:35:12;;;;;;;9.70;4.13;;;;;;;;;;5049844;28;20056;-86
2023/06/21 13:37:38;;;;;;;6.25;4.68;;;;;;;;;;5049685;28;20112;-84
2023/06/21 13:40:05;;;;;;;10.45;4.53;;;;;;;;;;5033173;28;20030;-86
2023/06/21 13:42:31;;;;;;;5.63;4.05;;;;;;;;;;5031904;28;20022;-86
2023/06/21 13:44:57;;;;;;;7.82;4.15;;;;;;;;;;5033355;28;20088;-86
2023/06/21 13:47:23;;;;;;;7.28;3.65;;;;;;;;;;5048214;28;20041;-87
2023/06/21 13:49:49;;;;;;;5.90;3.67;;;;;;;;;;5033251;28;20032;-86
2023/06/21 13:52:16;;;;;;;5.63;3.88;;;;;;;;;;5050129;28;20112;-86
2023/06/21 13:54:43;;;;;;;8.18;3.78;;;;;;;;;;5029693;28;20032;-85
2023/06/21 13:57:14;;;;;;;5.22;3.75;;;;;;;;;;5049252;28;20064;-85
2023/06/21 13:59:41;;;;;;;10.50;4.75;;;;;;;;;;5033679;28;20061;-85
2023/06/21 14:02:08;;;;;;;5.05;3.90;;;;;;;;;;5049554;28;20041;-84
2023/06/21 14:04:36;;;;;;;9.00;4.22;;;;;;;;;;5048849;28;20040;-86
2023/06/21 14:07:05;;;;;;;6.20;2.88;;;;;;;;;;5032178;28;20067;-86
2023/06/21 14:09:33;;;;;;;8.27;3.88;;;;;;;;;;5049403;28;20021;-84
2023/06/21 14:12:02;;;;;;;8.05;3.70;;;;;;;;;;5032754;28;20109;-86
2023/06/21 14:14:28;;;;;;;4.30;3.70;;;;;;;;;;5049458;28;20040;-85
2023/06/21 14:16:54;;;;;;;7.60;3.40;;;;;;;;;;5032737;28;20071;-87
2023/06/21 14:19:20;;;;;;;6.57;3.67;;;;;;;;;;5032657;28;20061;-84
2023/06/21 14:21:46;;;;;;;7.78;4.07;;;;;;;;;;5049724;28;20037;-86
2023/06/21 14:24:12;;;;;;;7.13;4.57;;;;;;;;;;5032802;28;20037;-84
2023/06/21 14:26:38;;;;;;;9.40;3.90;;;;;;;;;;5046185;28;20021;-86
2023/06/21 14:29:04;;;;;;;5.80;3.80;;;;;;;;;;5049385;28;20025;-86
2023/06/21 14:31:31;;;;;;;5.32;4.53;;;;;;;;;;5047971;28;20036;-86
2023/06/21 14:33:58;;;;;;;4.43;3.40;;;;;;;;;;5032341;28;20040;-85
2023/06/21 14:36:24;;;;;;;4.05;3.33;;;;;;;;;;5048622;28;20040;-86
2023/06/21 14:38:50;;;;;;;6.10;3.65;;;;;;;;;;5047487;28;20442;-86
2023/06/21 14:41:19;;;;;;;4.55;3.30;;;;;;;;;;5031304;28;20036;-86